Limon, CO

6:14 AM MDT on May 06, 2015 (GMT -0600)
Limon, CO | | Change Station
CLOSE
Current Station
Personal Weather Station
Location: Limon, CO
Elevation: 5361 ft
Nearby Weather Stations

Elev 5361 ft 39.27 °N, 103.68 °W | Updated 13 minutes ago

Light Rain
Light Rain
47.8 °F
Feels Like 48 °F
N
0.0
Wind Variable Wind from West
Gusts 2.0 mph

Today
High -- | Low -- °F
--% Chance of Precip.
Yesterday
High -- | Low -- °F
Precip. -- in
5:50 AM 7:52 PM
Waning Gibbous, 94% visible
Pressure 29.61 in
Visibility 10.0 miles
Clouds Scattered Clouds 3800 ft
Overcast 5500 ft
Windchill 48 °F
Dew Point 46 °F
Humidity 94%
Rainfall 0.02 in
Snow Depth Not available.
UV 0 out of 12
Pollen 7.10 out of 12
Air Quality Not available.
Flu Activity Sporadic
METAR KLIC 061155Z AUTO 00000KT 10SM -RA SCT038 OVC055 09/08 A2972 RMK AO2 RAB07 SLP027 P0001 60001 70052 T00890078 10100 20089 53000

More Conditions Fewer Conditions

Pressure 29.61 in
Visibility 10.0 miles
Clouds Scattered Clouds 3800 ft
Overcast 5500 ft
Windchill 48 °F
Dew Point 46 °F
Humidity 94%
Rainfall 0.02 in
Snow Depth Not available.
UV 0 out of 12
Pollen 7.10 out of 12
Air Quality Not available.
Flu Activity Sporadic
METAR KLIC 061155Z AUTO 00000KT 10SM -RA SCT038 OVC055 09/08 A2972 RMK AO2 RAB07 SLP027 P0001 60001 70052 T00890078 10100 20089 53000

More Conditions Fewer Conditions

10-Day Weather Forecast

Almanac

Astronomy

May. 06, 2015 Rise Set
Actual Time
Civil Twilight
Nautical Twilight
Astronomical Twilight
Moon
Length of Visible Light
Length of Day
Tomorrow will be .
, % of the Moon is Illuminated

Today's Extremes

State Highs State Lows

Community

WunderPhotos

Upload Photos

1,818,882 photos uploaded!

WunderBlogs® & News

Nearby

Air Quality

  Air Quality AQ Index Pollutant
Not available.

Snow Depth

Station Depth Elevation

Earthquake Activity

City Distance Mag. Time & Date
Minimum magnitude displayed is 2.5.

Coastal Water Temperatures

Place Temperature

Stations

Nearby Weather Stations

Station Location Temp. Windchill Dew Point Humidity Wind Precip. Elev Updated Type